sensor_id;sensor_type;location;lat;lon;timestamp;pressure;altitude;pressure_sealevel;temperature;humidity
39265;BME280;42646;51.910;7.724;2023-04-21T00:00:47;100875.34;;;9.59;100.00
39265;BME280;42646;51.910;7.724;2023-04-21T00:03:15;100857.50;;;9.61;100.00
39265;BME280;42646;51.910;7.724;2023-04-21T00:05:43;100859.75;;;9.66;100.00
39265;BME280;42646;51.910;7.724;2023-04-21T00:08:11;100859.75;;;9.66;100.00
39265;BME280;42646;51.910;7.724;2023-04-21T00:10:39;100865.91;;;9.66;100.00
39265;BME280;42646;51.910;7.724;2023-04-21T00:13:09;100854.88;;;9.71;100.00
39265;BME280;42646;51.910;7.724;2023-04-21T00:15:38;100848.34;;;9.75;100.00
39265;BME280;42646;51.910;7.724;2023-04-21T00:18:06;100841.09;;;9.77;100.00
39265;BME280;42646;51.910;7.724;2023-04-21T00:20:35;100830.94;;;9.82;100.00
39265;BME280;42646;51.910;7.724;2023-04-21T00:23:04;100841.41;;;9.83;100.00
39265;BME280;42646;51.910;7.724;2023-04-21T00:25:32;100825.06;;;9.78;100.00
39265;BME280;42646;51.910;7.724;2023-04-21T00:28:00;100826.44;;;9.82;100.00
39265;BME280;42646;51.910;7.724;2023-04-21T00:30:30;100821.97;;;9.83;100.00
39265;BME280;42646;51.910;7.724;2023-04-21T00:32:58;100818.25;;;9.85;100.00
39265;BME280;42646;51.910;7.724;2023-04-21T00:35:28;100822.56;;;9.86;100.00
39265;BME280;42646;51.910;7.724;2023-04-21T00:37:57;100826.06;;;9.87;100.00
39265;BME280;42646;51.910;7.724;2023-04-21T00:40:26;100825.38;;;9.85;100.00
39265;BME280;42646;51.910;7.724;2023-04-21T00:42:54;100824.13;;;9.89;100.00
39265;BME280;42646;51.910;7.724;2023-04-21T00:45:22;100821.91;;;9.94;100.00
39265;BME280;42646;51.910;7.724;2023-04-21T00:47:56;100827.22;;;9.94;100.00
39265;BME280;42646;51.910;7.724;2023-04-21T00:50:25;100828.22;;;9.93;100.00
39265;BME280;42646;51.910;7.724;2023-04-21T00:52:54;100820.47;;;9.90;100.00
39265;BME280;42646;51.910;7.724;2023-04-21T00:55:24;100818.41;;;9.94;100.00
39265;BME280;42646;51.910;7.724;2023-04-21T00:57:52;100823.03;;;9.92;100.00
39265;BME280;42646;51.910;7.724;2023-04-21T01:00:26;100815.63;;;9.95;100.00
39265;BME280;42646;51.910;7.724;2023-04-21T01:02:56;100817.72;;;9.92;100.00
39265;BME280;42646;51.910;7.724;2023-04-21T01:05:27;100806.56;;;9.98;100.00
39265;BME280;42646;51.910;7.724;2023-04-21T01:07:54;100821.91;;;9.94;100.00
39265;BME280;42646;51.910;7.724;2023-04-21T01:10:24;100827.22;;;9.94;100.00
39265;BME280;42646;51.910;7.724;2023-04-21T01:12:53;100826.41;;;9.94;100.00
39265;BME280;42646;51.910;7.724;2023-04-21T01:15:21;100832.31;;;9.97;100.00
39265;BME280;42646;51.910;7.724;2023-04-21T01:18:15;100841.81;;;10.00;100.00
39265;BME280;42646;51.910;7.724;2023-04-21T01:20:47;100845.44;;;9.99;100.00
39265;BME280;42646;51.910;7.724;2023-04-21T01:23:16;100844.63;;;9.98;100.00
39265;BME280;42646;51.910;7.724;2023-04-21T01:25:47;100851.38;;;10.02;100.00
39265;BME280;42646;51.910;7.724;2023-04-21T01:28:20;100847.72;;;10.03;100.00
39265;BME280;42646;51.910;7.724;2023-04-21T01:30:48;100845.78;;;10.05;100.00
39265;BME280;42646;51.910;7.724;2023-04-21T01:33:16;100851.09;;;10.05;100.00
39265;BME280;42646;51.910;7.724;2023-04-21T01:35:46;100861.59;;;10.07;100.00
39265;BME280;42646;51.910;7.724;2023-04-21T01:38:19;100859.66;;;10.09;100.00
39265;BME280;42646;51.910;7.724;2023-04-21T01:40:48;100861.19;;;10.11;100.00
39265;BME280;42646;51.910;7.724;2023-04-21T01:43:21;100858.41;;;10.13;100.00
39265;BME280;42646;51.910;7.724;2023-04-21T01:45:51;100859.25;;;10.13;100.00
39265;BME280;42646;51.910;7.724;2023-04-21T01:48:19;100862.63;;;10.15;100.00
39265;BME280;42646;51.910;7.724;2023-04-21T01:50:47;100866.84;;;10.18;100.00
39265;BME280;42646;51.910;7.724;2023-04-21T01:53:16;100858.03;;;10.17;100.00
39265;BME280;42646;51.910;7.724;2023-04-21T01:55:45;100856.94;;;10.20;100.00
39265;BME280;42646;51.910;7.724;2023-04-21T01:58:13;100865.75;;;10.21;100.00
39265;BME280;42646;51.910;7.724;2023-04-21T02:00:41;100858.63;;;10.21;100.00
39265;BME280;42646;51.910;7.724;2023-04-21T02:03:08;100862.13;;;10.22;100.00
39265;BME280;42646;51.910;7.724;2023-04-21T02:05:36;100863.78;;;10.23;100.00
39265;BME280;42646;51.910;7.724;2023-04-21T02:08:05;100853.16;;;10.23;99.96
39265;BME280;42646;51.910;7.724;2023-04-21T02:10:39;100854.13;;;10.22;100.00
39265;BME280;42646;51.910;7.724;2023-04-21T02:13:12;100853.88;;;10.25;100.00
39265;BME280;42646;51.910;7.724;2023-04-21T02:15:43;100851.38;;;10.23;100.00
39265;BME280;42646;51.910;7.724;2023-04-21T02:18:11;100854.72;;;10.25;100.00
39265;BME280;42646;51.910;7.724;2023-04-21T02:20:40;100854.03;;;10.23;100.00
39265;BME280;42646;51.910;7.724;2023-04-21T02:23:09;100854.97;;;10.22;100.00
39265;BME280;42646;51.910;7.724;2023-04-21T02:25:37;100853.28;;;10.21;100.00
39265;BME280;42646;51.910;7.724;2023-04-21T02:28:05;100863.78;;;10.23;100.00
39265;BME280;42646;51.910;7.724;2023-04-21T02:30:34;100851.38;;;10.23;100.00
39265;BME280;42646;51.910;7.724;2023-04-21T02:33:01;100854.97;;;10.22;100.00
39265;BME280;42646;51.910;7.724;2023-04-21T02:35:29;100854.13;;;10.22;100.00
39265;BME280;42646;51.910;7.724;2023-04-21T02:37:59;100858.72;;;10.20;100.00
39265;BME280;42646;51.910;7.724;2023-04-21T02:40:32;100863.78;;;10.23;100.00
39265;BME280;42646;51.910;7.724;2023-04-21T02:43:01;100858.63;;;10.21;100.00
39265;BME280;42646;51.910;7.724;2023-04-21T02:45:30;100849.78;;;10.21;100.00
39265;BME280;42646;51.910;7.724;2023-04-21T02:48:00;100868.41;;;10.21;100.00
39265;BME280;42646;51.910;7.724;2023-04-21T02:50:28;100866.59;;;10.21;100.00
39265;BME280;42646;51.910;7.724;2023-04-21T02:52:56;100860.88;;;10.26;100.00
39265;BME280;42646;51.910;7.724;2023-04-21T02:55:24;100865.50;;;10.24;100.00
39265;BME280;42646;51.910;7.724;2023-04-21T02:57:53;100866.59;;;10.21;100.00
39265;BME280;42646;51.910;7.724;2023-04-21T03:00:22;100871.31;;;10.17;100.00
39265;BME280;42646;51.910;7.724;2023-04-21T03:02:51;100866.97;;;10.16;100.00
39265;BME280;42646;51.910;7.724;2023-04-21T03:05:20;100859.00;;;10.16;100.00
39265;BME280;42646;51.910;7.724;2023-04-21T03:07:48;100863.19;;;10.19;100.00
39265;BME280;42646;51.910;7.724;2023-04-21T03:10:17;100866.44;;;10.23;100.00
39265;BME280;42646;51.910;7.724;2023-04-21T03:12:46;100865.84;;;10.19;100.00
39265;BME280;42646;51.910;7.724;2023-04-21T03:15:14;100863.47;;;10.16;100.00
39265;BME280;42646;51.910;7.724;2023-04-21T03:17:42;100859.00;;;10.16;100.00
39265;BME280;42646;51.910;7.724;2023-04-21T03:20:10;100864.03;;;10.20;100.00
39265;BME280;42646;51.910;7.724;2023-04-21T03:22:40;100861.38;;;10.20;100.00
39265;BME280;42646;51.910;7.724;2023-04-21T03:25:08;100861.28;;;10.21;100.00
39265;BME280;42646;51.910;7.724;2023-04-21T03:27:37;100853.28;;;10.21;100.00
39265;BME280;42646;51.910;7.724;2023-04-21T03:30:06;100862.13;;;10.22;100.00
39265;BME280;42646;51.910;7.724;2023-04-21T03:32:33;100852.06;;;10.25;100.00
39265;BME280;42646;51.910;7.724;2023-04-21T03:35:02;100851.38;;;10.23;100.00
39265;BME280;42646;51.910;7.724;2023-04-21T03:37:29;100849.56;;;10.24;100.00
39265;BME280;42646;51.910;7.724;2023-04-21T03:40:00;100852.06;;;10.25;100.00
39265;BME280;42646;51.910;7.724;2023-04-21T03:42:27;100845.81;;;10.26;100.00
39265;BME280;42646;51.910;7.724;2023-04-21T03:44:56;100846.91;;;10.24;100.00
39265;BME280;42646;51.910;7.724;2023-04-21T03:47:31;100849.31;;;10.27;100.00
39265;BME280;42646;51.910;7.724;2023-04-21T03:49:59;100852.06;;;10.25;100.00
39265;BME280;42646;51.910;7.724;2023-04-21T03:52:27;100853.16;;;10.23;100.00
39265;BME280;42646;51.910;7.724;2023-04-21T03:54:55;100846.91;;;10.24;100.00
39265;BME280;42646;51.910;7.724;2023-04-21T03:57:25;100852.91;;;10.26;100.00
39265;BME280;42646;51.910;7.724;2023-04-21T03:59:53;100844.09;;;10.25;100.00
39265;BME280;42646;51.910;7.724;2023-04-21T04:02:21;100848.47;;;10.26;100.00
39265;BME280;42646;51.910;7.724;2023-04-21T04:04:49;100849.31;;;10.27;100.00
39265;BME280;42646;51.910;7.724;2023-04-21T04:07:17;100843.84;;;10.28;100.00
39265;BME280;42646;51.910;7.724;2023-04-21T04:09:53;100839.38;;;10.29;100.00
39265;BME280;42646;51.910;7.724;2023-04-21T04:12:21;100835.03;;;10.28;100.00
39265;BME280;42646;51.910;7.724;2023-04-21T04:14:50;100832.50;;;10.26;100.00
39265;BME280;42646;51.910;7.724;2023-04-21T04:17:18;100838.66;;;10.27;100.00
39265;BME280;42646;51.910;7.724;2023-04-21T04:19:46;100831.63;;;10.26;100.00
39265;BME280;42646;51.910;7.724;2023-04-21T04:22:14;100833.22;;;10.28;100.00
39265;BME280;42646;51.910;7.724;2023-04-21T04:24:41;100833.47;;;10.25;100.00
39265;BME280;42646;51.910;7.724;2023-04-21T04:27:10;100832.50;;;10.26;100.00
39265;BME280;42646;51.910;7.724;2023-04-21T04:29:40;100834.19;;;10.27;100.00
39265;BME280;42646;51.910;7.724;2023-04-21T04:32:11;100832.50;;;10.26;100.00
39265;BME280;42646;51.910;7.724;2023-04-21T04:34:38;100821.59;;;10.29;100.00
39265;BME280;42646;51.910;7.724;2023-04-21T04:37:06;100822.44;;;10.30;100.00
39265;BME280;42646;51.910;7.724;2023-04-21T04:39:36;100823.28;;;10.30;100.00
39265;BME280;42646;51.910;7.724;2023-04-21T04:42:05;100820.63;;;10.30;100.00
39265;BME280;42646;51.910;7.724;2023-04-21T04:44:34;100824.94;;;10.31;100.00
39265;BME280;42646;51.910;7.724;2023-04-21T04:47:02;100815.19;;;10.32;100.00
39265;BME280;42646;51.910;7.724;2023-04-21T04:49:32;100818.94;;;10.29;100.00
39265;BME280;42646;51.910;7.724;2023-04-21T04:51:59;100819.91;;;10.28;100.00
39265;BME280;42646;51.910;7.724;2023-04-21T04:54:27;100818.78;;;10.31;100.00
39265;BME280;42646;51.910;7.724;2023-04-21T04:56:55;100816.03;;;10.32;100.00
39265;BME280;42646;51.910;7.724;2023-04-21T04:59:25;100828.34;;;10.33;100.00
39265;BME280;42646;51.910;7.724;2023-04-21T05:01:55;100824.56;;;10.36;100.00
39265;BME280;42646;51.910;7.724;2023-04-21T05:04:23;100830.59;;;10.38;100.00
39265;BME280;42646;51.910;7.724;2023-04-21T05:06:54;100831.44;;;10.38;100.00
39265;BME280;42646;51.910;7.724;2023-04-21T05:09:23;100824.41;;;10.37;100.00
39265;BME280;42646;51.910;7.724;2023-04-21T05:11:52;100821.66;;;10.39;100.00
39265;BME280;42646;51.910;7.724;2023-04-21T05:14:20;100827.66;;;10.41;100.00
39265;BME280;42646;51.910;7.724;2023-04-21T05:16:47;100836.50;;;10.41;100.00
39265;BME280;42646;51.910;7.724;2023-04-21T05:19:15;100834.56;;;10.43;100.00
39265;BME280;42646;51.910;7.724;2023-04-21T05:21:47;100845.19;;;10.43;100.00
39265;BME280;42646;51.910;7.724;2023-04-21T05:24:16;100843.47;;;10.42;100.00
39265;BME280;42646;51.910;7.724;2023-04-21T05:26:48;100835.50;;;10.42;100.00
39265;BME280;42646;51.910;7.724;2023-04-21T05:29:16;100846.28;;;10.41;100.00
39265;BME280;42646;51.910;7.724;2023-04-21T05:31:44;100842.94;;;10.39;100.00
39265;BME280;42646;51.910;7.724;2023-04-21T05:34:12;100842.66;;;10.42;100.00
39265;BME280;42646;51.910;7.724;2023-04-21T05:36:40;100847.72;;;10.45;100.00
39265;BME280;42646;51.910;7.724;2023-04-21T05:39:08;100849.66;;;10.43;100.00
39265;BME280;42646;51.910;7.724;2023-04-21T05:41:37;100855.69;;;10.45;100.00
39265;BME280;42646;51.910;7.724;2023-04-21T05:44:34;100855.31;;;10.50;99.89
39265;BME280;42646;51.910;7.724;2023-04-21T05:47:03;100861.72;;;10.47;100.00
39265;BME280;42646;51.910;7.724;2023-04-21T05:49:31;100865.94;;;10.50;99.95
39265;BME280;42646;51.910;7.724;2023-04-21T05:51:59;100859.06;;;10.47;99.93
39265;BME280;42646;51.910;7.724;2023-04-21T05:54:27;100869.56;;;10.49;100.00
39265;BME280;42646;51.910;7.724;2023-04-21T05:56:56;100862.31;;;10.51;100.00
39265;BME280;42646;51.910;7.724;2023-04-21T05:59:50;100858.38;;;10.55;99.85
39265;BME280;42646;51.910;7.724;2023-04-21T06:02:18;100862.59;;;10.57;99.83
39265;BME280;42646;51.910;7.724;2023-04-21T06:04:47;100860.13;;;10.65;99.38
39265;BME280;42646;51.910;7.724;2023-04-21T06:07:17;100861.94;;;10.65;99.41
39265;BME280;42646;51.910;7.724;2023-04-21T06:09:48;100854.41;;;10.70;99.40
39265;BME280;42646;51.910;7.724;2023-04-21T06:12:18;100855.09;;;10.72;99.38
39265;BME280;42646;51.910;7.724;2023-04-21T06:14:45;100862.53;;;10.78;98.67
39265;BME280;42646;51.910;7.724;2023-04-21T06:17:16;100853.59;;;10.79;98.75
39265;BME280;42646;51.910;7.724;2023-04-21T06:19:44;100849.13;;;10.80;98.65
39265;BME280;42646;51.910;7.724;2023-04-21T06:22:13;100852.09;;;10.86;98.62
39265;BME280;42646;51.910;7.724;2023-04-21T06:24:41;100854.47;;;10.89;98.09
39265;BME280;42646;51.910;7.724;2023-04-21T06:27:34;100848.34;;;10.99;97.81
39265;BME280;42646;51.910;7.724;2023-04-21T06:30:02;100851.53;;;11.02;97.74
39265;BME280;42646;51.910;7.724;2023-04-21T06:32:30;100850.31;;;11.06;97.05
39265;BME280;42646;51.910;7.724;2023-04-21T06:34:58;100844.13;;;11.06;96.98
39265;BME280;42646;51.910;7.724;2023-04-21T06:37:26;100847.38;;;11.09;97.35
39265;BME280;42646;51.910;7.724;2023-04-21T06:39:56;100848.78;;;11.13;97.06
39265;BME280;42646;51.910;7.724;2023-04-21T06:42:24;100847.38;;;11.19;96.84
39265;BME280;42646;51.910;7.724;2023-04-21T06:45:21;100849.38;;;11.27;96.64
39265;BME280;42646;51.910;7.724;2023-04-21T06:47:48;100848.09;;;11.31;95.82
39265;BME280;42646;51.910;7.724;2023-04-21T06:50:18;100848.94;;;11.31;95.36
39265;BME280;42646;51.910;7.724;2023-04-21T06:52:45;100844.88;;;11.37;95.27
39265;BME280;42646;51.910;7.724;2023-04-21T06:55:13;100840.69;;;11.44;94.21
39265;BME280;42646;51.910;7.724;2023-04-21T06:57:41;100847.81;;;11.43;94.48
39265;BME280;42646;51.910;7.724;2023-04-21T07:00:10;100843.78;;;11.49;93.95
39265;BME280;42646;51.910;7.724;2023-04-21T07:02:39;100848.53;;;11.55;93.20
39265;BME280;42646;51.910;7.724;2023-04-21T07:05:08;100840.13;;;11.60;93.91
39265;BME280;42646;51.910;7.724;2023-04-21T07:07:36;100836.50;;;11.70;93.33
39265;BME280;42646;51.910;7.724;2023-04-21T07:10:04;100835.53;;;11.81;93.32
39265;BME280;42646;51.910;7.724;2023-04-21T07:12:32;100831.56;;;11.95;92.61
39265;BME280;42646;51.910;7.724;2023-04-21T07:15:00;100832.53;;;12.03;92.49
39265;BME280;42646;51.910;7.724;2023-04-21T07:17:31;100840.81;;;12.10;91.67
39265;BME280;42646;51.910;7.724;2023-04-21T07:20:00;100831.41;;;12.16;91.45
39265;BME280;42646;51.910;7.724;2023-04-21T07:22:28;100828.84;;;12.24;91.83
39265;BME280;42646;51.910;7.724;2023-04-21T07:24:55;100836.13;;;12.32;91.33
39265;BME280;42646;51.910;7.724;2023-04-21T07:27:23;100827.84;;;12.35;90.42
39265;BME280;42646;51.910;7.724;2023-04-21T07:29:51;100825.28;;;12.33;89.95
39265;BME280;42646;51.910;7.724;2023-04-21T07:32:19;100833.84;;;12.37;89.79
39265;BME280;42646;51.910;7.724;2023-04-21T07:34:47;100825.16;;;12.35;89.70
39265;BME280;42646;51.910;7.724;2023-04-21T07:37:17;100830.75;;;12.41;89.02
39265;BME280;42646;51.910;7.724;2023-04-21T07:39:45;100828.94;;;12.42;89.02
39265;BME280;42646;51.910;7.724;2023-04-21T07:42:15;100829.50;;;12.45;89.91
39265;BME280;42646;51.910;7.724;2023-04-21T07:44:43;100827.75;;;12.54;89.85
39265;BME280;42646;51.910;7.724;2023-04-21T07:47:11;100832.06;;;12.65;90.02
39265;BME280;42646;51.910;7.724;2023-04-21T07:49:39;100820.63;;;12.82;90.01
39265;BME280;42646;51.910;7.724;2023-04-21T07:52:08;100825.44;;;12.96;89.23
39265;BME280;42646;51.910;7.724;2023-04-21T07:54:37;100828.75;;;13.08;88.29
39265;BME280;42646;51.910;7.724;2023-04-21T07:57:05;100820.25;;;13.22;87.29
39265;BME280;42646;51.910;7.724;2023-04-21T07:59:33;100828.50;;;13.29;87.21
39265;BME280;42646;51.910;7.724;2023-04-21T08:02:02;100822.06;;;13.40;86.24
39265;BME280;42646;51.910;7.724;2023-04-21T08:04:30;100819.88;;;13.53;86.77
39265;BME280;42646;51.910;7.724;2023-04-21T08:06:59;100817.41;;;13.77;85.27
39265;BME280;42646;51.910;7.724;2023-04-21T08:09:27;100822.72;;;13.95;83.89
39265;BME280;42646;51.910;7.724;2023-04-21T08:11:57;100825.34;;;14.13;82.72
39265;BME280;42646;51.910;7.724;2023-04-21T08:14:24;100813.22;;;14.27;82.82
39265;BME280;42646;51.910;7.724;2023-04-21T08:16:58;100820.09;;;14.55;82.66
39265;BME280;42646;51.910;7.724;2023-04-21T08:19:25;100812.19;;;14.80;81.46
39265;BME280;42646;51.910;7.724;2023-04-21T08:21:54;100804.69;;;15.00;79.69
39265;BME280;42646;51.910;7.724;2023-04-21T08:24:22;100806.59;;;15.23;78.74
39265;BME280;42646;51.910;7.724;2023-04-21T08:26:51;100815.53;;;15.48;76.69
39265;BME280;42646;51.910;7.724;2023-04-21T08:29:24;100812.50;;;15.52;74.57
39265;BME280;42646;51.910;7.724;2023-04-21T08:31:52;100816.84;;;15.44;73.77
39265;BME280;42646;51.910;7.724;2023-04-21T08:34:21;100804.44;;;15.35;73.93
39265;BME280;42646;51.910;7.724;2023-04-21T08:37:13;100812.97;;;15.22;73.66
39265;BME280;42646;51.910;7.724;2023-04-21T08:39:41;100813.78;;;15.15;74.26
39265;BME280;42646;51.910;7.724;2023-04-21T08:42:09;100810.59;;;15.11;74.48
39265;BME280;42646;51.910;7.724;2023-04-21T08:44:39;100813.97;;;15.13;74.09
39265;BME280;42646;51.910;7.724;2023-04-21T08:47:08;100817.28;;;15.07;74.80
39265;BME280;42646;51.910;7.724;2023-04-21T08:49:41;100817.28;;;15.07;74.68
39265;BME280;42646;51.910;7.724;2023-04-21T08:52:11;100813.25;;;15.03;75.38
39265;BME280;42646;51.910;7.724;2023-04-21T08:54:40;100818.44;;;15.05;74.63
39265;BME280;42646;51.910;7.724;2023-04-21T08:57:09;100823.66;;;15.06;74.83
39265;BME280;42646;51.910;7.724;2023-04-21T08:59:43;100817.94;;;15.01;74.71
39265;BME280;42646;51.910;7.724;2023-04-21T09:02:13;100822.31;;;15.02;75.19
39265;BME280;42646;51.910;7.724;2023-04-21T09:04:43;100814.28;;;15.10;75.25
39265;BME280;42646;51.910;7.724;2023-04-21T09:07:12;100803.06;;;15.15;75.44
39265;BME280;42646;51.910;7.724;2023-04-21T09:09:57;100808.59;;;15.30;75.96
39265;BME280;42646;51.910;7.724;2023-04-21T09:12:29;100807.31;;;15.42;75.48
39265;BME280;42646;51.910;7.724;2023-04-21T09:14:58;100805.97;;;15.54;73.84
39265;BME280;42646;51.910;7.724;2023-04-21T09:17:31;100803.00;;;15.65;73.54
39265;BME280;42646;51.910;7.724;2023-04-21T09:20:12;100807.31;;;15.58;73.42
39265;BME280;42646;51.910;7.724;2023-04-21T09:22:42;100809.63;;;15.53;73.38
39265;BME280;42646;51.910;7.724;2023-04-21T09:25:14;100811.00;;;15.49;73.11
39265;BME280;42646;51.910;7.724;2023-04-21T09:27:43;100808.63;;;15.46;73.27
39265;BME280;42646;51.910;7.724;2023-04-21T09:30:17;100804.28;;;15.53;74.16
39265;BME280;42646;51.910;7.724;2023-04-21T09:32:45;100810.50;;;15.62;73.62
39265;BME280;42646;51.910;7.724;2023-04-21T09:35:13;100810.34;;;15.63;73.88
39265;BME280;42646;51.910;7.724;2023-04-21T09:37:43;100810.69;;;15.68;72.11
39265;BME280;42646;51.910;7.724;2023-04-21T09:40:12;100808.50;;;15.64;73.22
39265;BME280;42646;51.910;7.724;2023-04-21T09:42:40;100808.69;;;15.70;73.14
39265;BME280;42646;51.910;7.724;2023-04-21T09:45:11;100809.53;;;15.79;72.64
39265;BME280;42646;51.910;7.724;2023-04-21T09:47:47;100800.31;;;15.90;72.58
39265;BME280;42646;51.910;7.724;2023-04-21T09:50:18;100798.41;;;16.15;72.20
39265;BME280;42646;51.910;7.724;2023-04-21T09:53:13;100791.16;;;16.23;71.82
39265;BME280;42646;51.910;7.724;2023-04-21T09:55:49;100803.06;;;16.37;69.91
39265;BME280;42646;51.910;7.724;2023-04-21T09:58:19;100796.00;;;16.36;70.31
39265;BME280;42646;51.910;7.724;2023-04-21T10:00:49;100789.09;;;16.42;69.97
39265;BME280;42646;51.910;7.724;2023-04-21T10:03:22;100783.75;;;16.34;69.54
39265;BME280;42646;51.910;7.724;2023-04-21T10:05:54;100781.34;;;16.47;69.31
39265;BME280;42646;51.910;7.724;2023-04-21T10:08:23;100777.31;;;16.51;68.37
39265;BME280;42646;51.910;7.724;2023-04-21T10:10:54;100771.75;;;16.61;68.53
39265;BME280;42646;51.910;7.724;2023-04-21T10:13:22;100779.09;;;16.75;68.65
39265;BME280;42646;51.910;7.724;2023-04-21T10:16:03;100778.19;;;16.91;66.89
39265;BME280;42646;51.910;7.724;2023-04-21T10:18:35;100774.59;;;16.98;66.92
39265;BME280;42646;51.910;7.724;2023-04-21T10:21:06;100770.84;;;17.07;67.04
39265;BME280;42646;51.910;7.724;2023-04-21T10:23:38;100767.28;;;17.15;67.85
39265;BME280;42646;51.910;7.724;2023-04-21T10:26:09;100753.56;;;17.25;68.02
39265;BME280;42646;51.910;7.724;2023-04-21T10:28:42;100763.09;;;17.35;66.39
39265;BME280;42646;51.910;7.724;2023-04-21T10:31:22;100752.03;;;17.30;66.18
39265;BME280;42646;51.910;7.724;2023-04-21T10:34:13;100754.91;;;17.29;66.50
39265;BME280;42646;51.910;7.724;2023-04-21T10:36:47;100748.38;;;17.23;65.78
39265;BME280;42646;51.910;7.724;2023-04-21T10:39:25;100751.44;;;17.20;65.72
39265;BME280;42646;51.910;7.724;2023-04-21T10:41:57;100749.41;;;17.22;66.40
39265;BME280;42646;51.910;7.724;2023-04-21T10:44:27;100743.19;;;17.22;66.33
39265;BME280;42646;51.910;7.724;2023-04-21T10:46:57;100738.72;;;17.14;65.21
39265;BME280;42646;51.910;7.724;2023-04-21T10:49:28;100731.50;;;17.15;65.36
39265;BME280;42646;51.910;7.724;2023-04-21T10:52:07;100724.00;;;17.25;64.09
39265;BME280;42646;51.910;7.724;2023-04-21T10:54:41;100720.84;;;17.21;63.92
39265;BME280;42646;51.910;7.724;2023-04-21T10:57:12;100724.00;;;17.25;64.35
39265;BME280;42646;51.910;7.724;2023-04-21T10:59:41;100720.88;;;17.36;63.66
39265;BME280;42646;51.910;7.724;2023-04-21T11:02:10;100713.53;;;17.30;64.57
39265;BME280;42646;51.910;7.724;2023-04-21T11:04:40;100711.88;;;17.29;64.40
39265;BME280;42646;51.910;7.724;2023-04-21T11:07:12;100714.22;;;17.32;62.81
39265;BME280;42646;51.910;7.724;2023-04-21T11:09:45;100709.38;;;17.27;63.02
39265;BME280;42646;51.910;7.724;2023-04-21T11:12:15;100702.34;;;17.26;62.93
39265;BME280;42646;51.910;7.724;2023-04-21T11:14:45;100703.81;;;17.29;62.12
39265;BME280;42646;51.910;7.724;2023-04-21T11:17:14;100695.25;;;17.25;62.42
39265;BME280;42646;51.910;7.724;2023-04-21T11:19:45;100695.44;;;17.24;62.53
39265;BME280;42646;51.910;7.724;2023-04-21T11:22:15;100690.25;;;17.22;62.66
39265;BME280;42646;51.910;7.724;2023-04-21T11:24:43;100686.53;;;17.23;62.58
39265;BME280;42646;51.910;7.724;2023-04-21T11:27:11;100682.94;;;17.31;62.45
39265;BME280;42646;51.910;7.724;2023-04-21T11:29:41;100673.69;;;17.33;61.96
39265;BME280;42646;51.910;7.724;2023-04-21T11:32:08;100673.81;;;17.40;62.11
39265;BME280;42646;51.910;7.724;2023-04-21T11:34:36;100666.94;;;17.38;62.59
39265;BME280;42646;51.910;7.724;2023-04-21T11:37:07;100659.53;;;17.40;62.08
39265;BME280;42646;51.910;7.724;2023-04-21T11:39:39;100658.69;;;17.54;59.74
39265;BME280;42646;51.910;7.724;2023-04-21T11:42:06;100649.97;;;17.52;60.68
39265;BME280;42646;51.910;7.724;2023-04-21T11:44:36;100643.78;;;17.51;60.18
39265;BME280;42646;51.910;7.724;2023-04-21T11:47:12;100639.69;;;17.55;60.30
39265;BME280;42646;51.910;7.724;2023-04-21T11:49:45;100635.25;;;17.62;59.53
39265;BME280;42646;51.910;7.724;2023-04-21T11:52:21;100626.56;;;17.75;59.72
39265;BME280;42646;51.910;7.724;2023-04-21T11:54:55;100626.47;;;17.98;59.35
39265;BME280;42646;51.910;7.724;2023-04-21T11:57:24;100625.22;;;18.15;59.12
39265;BME280;42646;51.910;7.724;2023-04-21T11:59:52;100618.47;;;18.41;56.31
39265;BME280;42646;51.910;7.724;2023-04-21T12:02:23;100614.47;;;18.37;55.60
39265;BME280;42646;51.910;7.724;2023-04-21T12:04:59;100605.13;;;18.33;56.69
39265;BME280;42646;51.910;7.724;2023-04-21T12:07:31;100609.03;;;18.30;56.98
39265;BME280;42646;51.910;7.724;2023-04-21T12:10:00;100613.56;;;18.45;56.68
39265;BME280;42646;51.910;7.724;2023-04-21T12:12:28;100609.81;;;18.46;56.49
39265;BME280;42646;51.910;7.724;2023-04-21T12:14:56;100608.16;;;18.45;56.82
39265;BME280;42646;51.910;7.724;2023-04-21T12:17:24;100603.00;;;18.50;56.52
39265;BME280;42646;51.910;7.724;2023-04-21T12:19:52;100595.41;;;18.53;56.87
39265;BME280;42646;51.910;7.724;2023-04-21T12:22:19;100585.44;;;18.54;56.64
39265;BME280;42646;51.910;7.724;2023-04-21T12:24:50;100578.19;;;18.54;54.20
39265;BME280;42646;51.910;7.724;2023-04-21T12:27:17;100580.69;;;18.56;54.78
39265;BME280;42646;51.910;7.724;2023-04-21T12:29:47;100577.97;;;18.71;54.02
39265;BME280;42646;51.910;7.724;2023-04-21T12:32:16;100576.13;;;18.71;54.17
39265;BME280;42646;51.910;7.724;2023-04-21T12:34:47;100580.94;;;18.76;52.94
39265;BME280;42646;51.910;7.724;2023-04-21T12:37:15;100577.72;;;18.87;52.28
39265;BME280;42646;51.910;7.724;2023-04-21T12:39:43;100573.09;;;18.81;51.92
39265;BME280;42646;51.910;7.724;2023-04-21T12:42:12;100573.47;;;18.78;51.96
39265;BME280;42646;51.910;7.724;2023-04-21T12:44:39;100565.66;;;18.83;52.70
39265;BME280;42646;51.910;7.724;2023-04-21T12:47:07;100559.88;;;18.86;52.58
39265;BME280;42646;51.910;7.724;2023-04-21T12:49:35;100562.38;;;18.87;51.56
39265;BME280;42646;51.910;7.724;2023-04-21T12:52:03;100557.59;;;18.89;51.68
39265;BME280;42646;51.910;7.724;2023-04-21T12:54:31;100550.84;;;19.00;49.58
39265;BME280;42646;51.910;7.724;2023-04-21T12:56:59;100556.03;;;19.02;49.52
39265;BME280;42646;51.910;7.724;2023-04-21T12:59:28;100554.78;;;18.98;49.44